Time;durP1;ratioP1;P1;durP2;ratioP2;P2;SDS_P1;SDS_P2;PMS_P1;PMS_P2;Temp;Humidity;BMP_temperature;BMP_pressure;BME280_temperature;BME280_humidity;BME280_pressure;Samples;Min_cycle;Max_cycle;Signal;HPM_P1;HPM_P2
2023/06/28 00:02:15;;;;;;;;;;;;;;;-140.72;100.00;52415.22;4987997;28;19922;-69
2023/06/28 00:04:40;;;;;;;;;;;;;;;-140.72;100.00;52455.78;4980601;28;19918;-69
2023/06/28 00:07:07;;;;;;;;;;;;;;;-140.72;100.00;52439.56;4992141;28;19980;-69
2023/06/28 00:09:33;;;;;;;;;;;;;;;-140.72;100.00;52433.47;4988160;28;20340;-69
2023/06/28 00:11:58;;;;;;;;;;;;;;;-140.72;100.00;52435.50;4991223;28;19929;-69
2023/06/28 00:14:23;;;;;;;;;;;;;;;-140.72;100.00;52429.41;4991110;28;20265;-69
2023/06/28 00:16:48;;;;;;;;;;;;;;;-140.72;100.00;52435.50;4989786;28;19941;-69
2023/06/28 00:19:17;;;;;;;;;;;;;;;-140.72;100.00;52437.53;4991150;28;19929;-69
2023/06/28 00:21:43;;;;;;;;;;;;;;;-140.72;100.00;52443.63;4990389;28;19924;-69
2023/06/28 00:24:08;;;;;;;;;;;;;;;-140.72;100.00;52472.03;4990895;28;19926;-69
2023/06/28 00:26:33;;;;;;;;;;;;;;;-140.72;100.00;52445.66;4989678;28;20004;-69
2023/06/28 00:28:59;;;;;;;;;;;;;;;-140.72;100.00;52419.28;4989497;28;19957;-69
2023/06/28 00:31:24;;;;;;;;;;;;;;;-140.72;100.00;52433.47;4991518;28;20391;-69
2023/06/28 00:33:49;;;;;;;;;;;;;;;-140.72;100.00;52455.78;4976321;28;20332;-69
2023/06/28 00:36:14;;;;;;;;;;;;;;;-140.72;100.00;52449.72;4973072;28;19940;-69
2023/06/28 00:38:41;;;;;;;;;;;;;;;-140.72;100.00;52472.03;4987264;28;19917;-69
2023/06/28 00:41:06;;;;;;;;;;;;;;;-140.72;100.00;52445.66;4992772;28;19922;-69
2023/06/28 00:43:31;;;;;;;;;;;;;;;-140.72;100.00;52447.69;4993990;28;19980;-69
2023/06/28 00:45:56;;;;;;;;;;;;;;;-140.72;100.00;52467.97;4992906;28;20316;-69
2023/06/28 00:48:22;;;;;;;;;;;;;;;-140.72;100.00;52433.47;4976896;28;19918;-69
2023/06/28 00:50:47;;;;;;;;;;;;;;;-140.72;100.00;52461.88;4990883;28;19940;-69
2023/06/28 00:53:14;;;;;;;;;;;;;;;-140.72;100.00;52419.28;4993565;28;20024;-69
2023/06/28 00:55:39;;;;;;;;;;;;;;;-140.72;100.00;52451.72;4992490;28;19976;-69
2023/06/28 00:58:04;;;;;;;;;;;;;;;-140.72;100.00;52431.44;4974338;28;19961;-69
2023/06/28 01:00:30;;;;;;;;;;;;;;;-140.72;100.00;52439.56;4992257;28;19973;-69
2023/06/28 01:02:55;;;;;;;;;;;;;;;-140.72;100.00;52463.91;4967782;28;19927;-69
2023/06/28 01:05:22;;;;;;;;;;;;;;;-140.72;100.00;52435.50;4991932;28;19921;-69
2023/06/28 01:07:47;;;;;;;;;;;;;;;-140.72;100.00;52431.44;4990913;28;19923;-69
2023/06/28 01:10:13;;;;;;;;;;;;;;;-140.72;100.00;52451.72;4995497;28;19932;-69
2023/06/28 01:12:39;;;;;;;;;;;;;;;-140.72;100.00;52478.13;4996647;28;20418;-69
2023/06/28 01:15:05;;;;;;;;;;;;;;;-140.72;100.00;52455.78;4992754;28;19972;-69
2023/06/28 01:17:30;;;;;;;;;;;;;;;-140.72;100.00;52463.91;4991911;28;19932;-69
2023/06/28 01:19:55;;;;;;;;;;;;;;;-140.72;100.00;52472.03;4990106;28;19926;-69
2023/06/28 01:22:21;;;;;;;;;;;;;;;-140.72;100.00;52435.50;4991314;28;19921;-69
2023/06/28 01:24:46;;;;;;;;;;;;;;;-140.72;100.00;52474.06;4993064;28;20315;-69
2023/06/28 01:27:13;;;;;;;;;;;;;;;-140.72;100.00;52500.44;4991047;28;19926;-69
2023/06/28 01:29:39;;;;;;;;;;;;;;;-140.72;100.00;52451.72;4971258;28;20009;-69
2023/06/28 01:32:05;;;;;;;;;;;;;;;-140.72;100.00;52467.97;4989616;28;19949;-69
2023/06/28 01:34:30;;;;;;;;;;;;;;;-140.72;100.00;52482.16;4987807;28;19933;-73
2023/06/28 01:36:56;;;;;;;;;;;;;;;-140.72;100.00;52459.84;4991885;28;19921;-69
2023/06/28 01:39:22;;;;;;;;;;;;;;;-140.72;100.00;52463.91;4992489;28;20432;-69
2023/06/28 01:41:48;;;;;;;;;;;;;;;-140.72;100.00;52455.78;4987874;28;19921;-69
2023/06/28 01:44:13;;;;;;;;;;;;;;;-140.72;100.00;52488.25;4985710;28;20065;-69
2023/06/28 01:46:39;;;;;;;;;;;;;;;-140.72;100.00;52455.78;5000035;28;19922;-69
2023/06/28 01:49:05;;;;;;;;;;;;;;;-140.72;100.00;52439.56;4995147;28;19918;-69
2023/06/28 01:51:30;;;;;;;;;;;;;;;-140.72;100.00;52500.44;4997633;28;19922;-69
2023/06/28 01:53:56;;;;;;;;;;;;;;;-140.72;100.00;52455.78;4973964;28;19988;-69
2023/06/28 01:56:21;;;;;;;;;;;;;;;-140.72;100.00;52492.31;4980069;28;19924;-70
2023/06/28 01:58:46;;;;;;;;;;;;;;;-140.72;100.00;52461.88;4993583;28;19926;-69
2023/06/28 02:01:12;;;;;;;;;;;;;;;-140.72;100.00;52463.91;4984757;28;19922;-69
2023/06/28 02:03:37;;;;;;;;;;;;;;;-140.72;100.00;52488.25;4988322;28;19922;-69
2023/06/28 02:06:03;;;;;;;;;;;;;;;-140.72;100.00;52449.72;4985607;28;19917;-69
2023/06/28 02:08:28;;;;;;;;;;;;;;;-140.72;100.00;52457.81;4992341;28;20045;-69
2023/06/28 02:10:53;;;;;;;;;;;;;;;-140.72;100.00;52492.31;4993412;28;19918;-69
2023/06/28 02:13:18;;;;;;;;;;;;;;;-140.72;100.00;52480.16;4991423;28;19972;-69
2023/06/28 02:15:43;;;;;;;;;;;;;;;-140.72;100.00;52500.44;4974812;28;20276;-69
2023/06/28 02:18:09;;;;;;;;;;;;;;;-140.72;100.00;52484.19;4989377;28;20028;-69
2023/06/28 02:20:34;;;;;;;;;;;;;;;-140.72;100.00;52502.47;4992568;28;19917;-69
2023/06/28 02:22:59;;;;;;;;;;;;;;;-140.72;100.00;52480.16;4985144;28;20470;-69
2023/06/28 02:25:24;;;;;;;;;;;;;;;-140.72;100.00;52461.88;4986090;28;19941;-69
2023/06/28 02:27:50;;;;;;;;;;;;;;;-140.72;100.00;52459.84;4992370;28;19928;-69
2023/06/28 02:30:15;;;;;;;;;;;;;;;-140.72;100.00;52492.31;4987092;28;19917;-69
2023/06/28 02:32:40;;;;;;;;;;;;;;;-140.72;100.00;52465.94;4973607;28;19971;-69
2023/06/28 02:35:06;;;;;;;;;;;;;;;-140.72;100.00;52488.25;4971583;28;19921;-69
2023/06/28 02:37:31;;;;;;;;;;;;;;;-140.72;100.00;52467.97;4986644;28;19953;-69
2023/06/28 02:39:56;;;;;;;;;;;;;;;-140.72;100.00;52480.16;4989252;28;19925;-69
2023/06/28 02:42:22;;;;;;;;;;;;;;;-140.72;100.00;52470.00;4969934;28;19918;-69
2023/06/28 02:44:48;;;;;;;;;;;;;;;-140.72;100.00;52459.84;4976454;28;19977;-69
2023/06/28 02:47:13;;;;;;;;;;;;;;;-140.72;100.00;52445.66;4987202;28;19924;-69
2023/06/28 02:49:39;;;;;;;;;;;;;;;-140.72;100.00;52476.09;4986480;28;20287;-69
2023/06/28 02:52:06;;;;;;;;;;;;;;;-140.72;100.00;52488.25;4980479;28;19918;-69
2023/06/28 02:54:31;;;;;;;;;;;;;;;-140.72;100.00;52500.44;4975690;28;20016;-69
2023/06/28 02:56:57;;;;;;;;;;;;;;;-140.72;100.00;52472.03;4990069;28;20012;-69
2023/06/28 02:59:22;;;;;;;;;;;;;;;-140.72;100.00;52451.72;4988640;28;19968;-69
2023/06/28 03:01:47;;;;;;;;;;;;;;;-140.72;100.00;52441.59;4971874;28;19922;-69
2023/06/28 03:04:14;;;;;;;;;;;;;;;-140.72;100.00;52492.31;4974446;28;20272;-69
2023/06/28 03:06:40;;;;;;;;;;;;;;;-140.72;100.00;52502.47;4986711;28;20034;-69
2023/06/28 03:09:05;;;;;;;;;;;;;;;-140.72;100.00;52516.66;4975656;28;19960;-69
2023/06/28 03:11:30;;;;;;;;;;;;;;;-140.72;100.00;52476.09;4993391;28;20419;-69
2023/06/28 03:13:57;;;;;;;;;;;;;;;-140.72;100.00;52484.19;4992192;28;20385;-69
2023/06/28 03:16:22;;;;;;;;;;;;;;;-140.72;100.00;52472.03;4982819;28;19925;-69
2023/06/28 03:18:47;;;;;;;;;;;;;;;-140.72;100.00;52480.16;4978457;28;20296;-69
2023/06/28 03:21:15;;;;;;;;;;;;;;;-140.72;100.00;52478.13;4986390;28;20015;-69
2023/06/28 03:23:40;;;;;;;;;;;;;;;-140.72;100.00;52520.72;4962553;28;19918;-69
2023/06/28 03:26:05;;;;;;;;;;;;;;;-140.72;100.00;52492.31;4993004;28;20288;-69
2023/06/28 03:28:30;;;;;;;;;;;;;;;-140.72;100.00;52492.31;4992784;28;20296;-69
2023/06/28 03:30:56;;;;;;;;;;;;;;;-140.72;100.00;52500.44;4972492;28;20300;-69
2023/06/28 03:33:22;;;;;;;;;;;;;;;-140.72;100.00;52508.56;4988031;28;19992;-69
2023/06/28 03:35:47;;;;;;;;;;;;;;;-140.72;100.00;52480.16;4984824;28;20408;-69
2023/06/28 03:38:12;;;;;;;;;;;;;;;-140.72;100.00;52486.22;4996040;28;20046;-69
2023/06/28 03:40:38;;;;;;;;;;;;;;;-140.72;100.00;52463.91;4994935;28;19918;-69
2023/06/28 03:43:03;;;;;;;;;;;;;;;-140.72;100.00;52494.34;4985907;28;20467;-69
2023/06/28 03:45:29;;;;;;;;;;;;;;;-140.72;100.00;52463.91;4989477;28;20308;-69
2023/06/28 03:47:54;;;;;;;;;;;;;;;-140.72;100.00;52467.97;4978265;28;19922;-69
2023/06/28 03:50:23;;;;;;;;;;;;;;;-140.72;100.00;52520.72;4983767;28;20005;-69
2023/06/28 03:52:48;;;;;;;;;;;;;;;-140.72;100.00;52467.97;4979515;28;20068;-69
2023/06/28 03:55:16;;;;;;;;;;;;;;;-140.72;100.00;52526.81;4987748;28;19973;-69
2023/06/28 03:57:41;;;;;;;;;;;;;;;-140.72;100.00;52490.28;4992495;28;19917;-69
2023/06/28 04:00:08;;;;;;;;;;;;;;;-140.72;100.00;52480.16;4979026;28;19924;-69
2023/06/28 04:02:34;;;;;;;;;;;;;;;-140.72;100.00;52470.00;4984425;28;19918;-69
2023/06/28 04:04:59;;;;;;;;;;;;;;;-140.72;100.00;52508.56;4985570;28;19924;-70
2023/06/28 04:07:26;;;;;;;;;;;;;;;-140.72;100.00;52488.25;4987798;28;19917;-69
2023/06/28 04:09:51;;;;;;;;;;;;;;;-140.72;100.00;52461.88;4987659;28;19949;-68
2023/06/28 04:12:17;;;;;;;;;;;;;;;-140.72;100.00;52484.19;4985007;28;19951;-68
2023/06/28 04:14:42;;;;;;;;;;;;;;;-140.72;100.00;52532.91;4980882;28;19918;-69
2023/06/28 04:17:07;;;;;;;;;;;;;;;-140.72;100.00;52461.88;4977957;28;19972;-69
2023/06/28 04:19:33;;;;;;;;;;;;;;;-140.72;100.00;52500.44;4988078;28;19918;-68
2023/06/28 04:21:59;;;;;;;;;;;;;;;-140.72;100.00;52480.16;4987715;28;20376;-67
2023/06/28 04:24:24;;;;;;;;;;;;;;;-140.72;100.00;52484.19;4988055;28;20331;-72
2023/06/28 04:26:49;;;;;;;;;;;;;;;-140.72;100.00;52472.03;4980698;28;19957;-68
2023/06/28 04:29:15;;;;;;;;;;;;;;;-140.72;100.00;52480.16;4995563;28;19918;-72
2023/06/28 04:31:42;;;;;;;;;;;;;;;-140.72;100.00;52482.16;4984563;28;19918;-72
2023/06/28 04:34:07;;;;;;;;;;;;;;;-140.72;100.00;52484.19;4986945;28;19925;-76
2023/06/28 04:36:33;;;;;;;;;;;;;;;-140.72;100.00;52463.91;4979700;28;19918;-78
2023/06/28 04:41:51;;;;;;;;;;;;;;;-140.72;100.00;52478.13;4994271;28;19918;-73
2023/06/28 04:44:16;;;;;;;;;;;;;;;-140.72;100.00;52492.31;4983686;28;19933;-71
2023/06/28 04:46:44;;;;;;;;;;;;;;;-140.72;100.00;52484.19;4995863;28;19924;-75
2023/06/28 04:49:10;;;;;;;;;;;;;;;-140.72;100.00;52480.16;4993410;28;19922;-74
2023/06/28 04:51:35;;;;;;;;;;;;;;;-140.72;100.00;52465.94;4984596;28;19943;-74
2023/06/28 04:56:53;;;;;;;;;;;;;;;-140.72;100.00;52516.66;4993011;28;19922;-73
2023/06/28 04:59:18;;;;;;;;;;;;;;;-140.72;100.00;52484.19;4993601;28;20286;-72
2023/06/28 05:01:44;;;;;;;;;;;;;;;-140.72;100.00;52516.66;4976875;28;19945;-74
2023/06/28 05:04:09;;;;;;;;;;;;;;;-140.72;100.00;52451.72;4994860;28;19929;-72
2023/06/28 05:06:37;;;;;;;;;;;;;;;-140.72;100.00;52447.69;4991889;28;19922;-71
2023/06/28 05:09:02;;;;;;;;;;;;;;;-140.72;100.00;52472.03;4995053;28;19960;-76
2023/06/28 05:11:28;;;;;;;;;;;;;;;-140.72;100.00;52500.44;4993189;28;19930;-69
2023/06/28 05:13:53;;;;;;;;;;;;;;;-140.72;100.00;52512.59;4994113;28;19922;-69
2023/06/28 05:16:18;;;;;;;;;;;;;;;-140.72;100.00;52488.25;4991830;28;19925;-68
2023/06/28 05:18:43;;;;;;;;;;;;;;;-140.72;100.00;52484.19;4989130;28;20606;-69
2023/06/28 05:21:09;;;;;;;;;;;;;;;-140.72;100.00;52472.03;4995926;28;19921;-71
2023/06/28 05:23:34;;;;;;;;;;;;;;;-140.72;100.00;52484.19;4994936;28;20364;-69
2023/06/28 05:25:59;;;;;;;;;;;;;;;-140.72;100.00;52451.72;4978515;28;19921;-69
2023/06/28 05:28:27;;;;;;;;;;;;;;;-140.72;100.00;52506.53;4988708;28;21413;-70
2023/06/28 05:30:53;;;;;;;;;;;;;;;-140.72;100.00;52488.25;4987383;28;19918;-69
2023/06/28 05:33:18;;;;;;;;;;;;;;;-140.72;100.00;52465.94;4977766;28;20253;-69
2023/06/28 05:35:43;;;;;;;;;;;;;;;-140.72;100.00;52472.03;4984843;28;20477;-69
2023/06/28 05:38:08;;;;;;;;;;;;;;;-140.72;100.00;52500.44;4991766;28;20364;-69
2023/06/28 05:40:34;;;;;;;;;;;;;;;-140.72;100.00;52470.00;4994398;28;20287;-69
2023/06/28 05:43:00;;;;;;;;;;;;;;;-140.72;100.00;52492.31;4979611;28;19949;-69
2023/06/28 05:45:30;;;;;;;;;;;;;;;-140.72;100.00;52461.88;4974178;28;19972;-69
2023/06/28 05:47:57;;;;;;;;;;;;;;;-140.72;100.00;52480.16;4975268;28;20020;-69
2023/06/28 05:50:23;;;;;;;;;;;;;;;-140.72;100.00;52478.13;4975595;28;19919;-69
2023/06/28 05:52:48;;;;;;;;;;;;;;;-140.72;100.00;52486.22;4983909;28;19949;-69
2023/06/28 05:55:14;;;;;;;;;;;;;;;-140.72;100.00;52431.44;4983723;28;20363;-70
2023/06/28 05:57:40;;;;;;;;;;;;;;;-140.72;100.00;52451.72;4972944;28;19922;-72
2023/06/28 06:00:06;;;;;;;;;;;;;;;-140.72;100.00;52427.38;4971891;28;19922;-71
2023/06/28 06:02:32;;;;;;;;;;;;;;;-140.72;100.00;52433.47;4989629;28;19917;-71
2023/06/28 06:05:00;;;;;;;;;;;;;;;-140.72;100.00;52463.91;4991496;28;19941;-71
2023/06/28 06:07:26;;;;;;;;;;;;;;;-140.72;100.00;52488.25;4970584;28;19928;-72
2023/06/28 06:09:51;;;;;;;;;;;;;;;-140.72;100.00;52459.84;4994590;28;19922;-71
2023/06/28 06:12:18;;;;;;;;;;;;;;;-140.72;100.00;52461.88;4991914;28;19936;-72
2023/06/28 06:14:43;;;;;;;;;;;;;;;-140.72;100.00;52453.75;4991130;28;20009;-72
2023/06/28 06:17:09;;;;;;;;;;;;;;;-140.72;100.00;52474.06;4977615;28;20024;-75
2023/06/28 06:19:34;;;;;;;;;;;;;;;-140.72;100.00;52459.84;4989811;28;19966;-72
2023/06/28 06:21:59;;;;;;;;;;;;;;;-140.72;100.00;52445.66;4986562;28;19964;-72
2023/06/28 06:24:30;;;;;;;;;;;;;;;-140.72;100.00;52445.66;4987324;28;20422;-72
2023/06/28 06:26:55;;;;;;;;;;;;;;;-140.72;100.00;52472.03;4965453;28;20008;-73
2023/06/28 06:29:21;;;;;;;;;;;;;;;-140.72;100.00;52427.38;4965367;28;20013;-72
2023/06/28 06:31:46;;;;;;;;;;;;;;;-140.72;100.00;52455.78;4969138;28;19922;-70
2023/06/28 06:34:11;;;;;;;;;;;;;;;-140.72;100.00;52433.47;4961646;28;20383;-72
2023/06/28 06:36:37;;;;;;;;;;;;;;;-140.72;100.00;52461.88;4970936;28;20327;-71
2023/06/28 06:39:02;;;;;;;;;;;;;;;-140.72;100.00;52443.63;4964313;28;19969;-70
2023/06/28 06:41:27;;;;;;;;;;;;;;;-140.72;100.00;52415.22;4955520;28;19918;-71
2023/06/28 06:43:54;;;;;;;;;;;;;;;-140.72;100.00;52474.06;4972220;28;19922;-68
2023/06/28 06:46:20;;;;;;;;;;;;;;;-140.72;100.00;52445.66;4971499;28;19961;-69
2023/06/28 06:48:46;;;;;;;;;;;;;;;-140.72;100.00;52423.31;4951942;28;19993;-69
2023/06/28 06:51:11;;;;;;;;;;;;;;;-140.72;100.00;52447.69;4966328;28;20029;-69
2023/06/28 06:53:36;;;;;;;;;;;;;;;-140.72;100.00;52463.91;4969585;28;19929;-69
2023/06/28 06:56:01;;;;;;;;;;;;;;;-140.72;100.00;52439.56;4966836;28;19922;-69
2023/06/28 06:58:27;;;;;;;;;;;;;;;-140.72;100.00;52435.50;4967811;28;19948;-69
2023/06/28 07:00:52;;;;;;;;;;;;;;;-140.72;100.00;52423.31;4957445;28;19972;-69
2023/06/28 07:03:17;;;;;;;;;;;;;;;-140.72;100.00;52439.56;4958741;28;19918;-69
2023/06/28 07:05:43;;;;;;;;;;;;;;;-140.72;100.00;52447.69;4972045;28;19966;-69
2023/06/28 07:08:08;;;;;;;;;;;;;;;-140.72;100.00;52433.47;4972479;28;20228;-69
2023/06/28 07:10:34;;;;;;;;;;;;;;;-140.72;100.00;52427.38;4967613;28;19965;-69
2023/06/28 07:12:59;;;;;;;;;;;;;;;-140.72;100.00;52411.16;4946458;28;20368;-69
2023/06/28 07:15:25;;;;;;;;;;;;;;;-140.72;100.00;52431.44;4971960;28;19918;-69
2023/06/28 07:17:51;;;;;;;;;;;;;;;-140.72;100.00;52431.44;4954814;28;20033;-69
2023/06/28 07:20:16;;;;;;;;;;;;;;;-140.72;100.00;52431.44;4968082;28;20258;-69
2023/06/28 07:22:42;;;;;;;;;;;;;;;-140.72;100.00;52380.72;4969901;28;19973;-69
2023/06/28 07:25:07;;;;;;;;;;;;;;;-140.72;100.00;52401.00;4973630;28;19926;-69
2023/06/28 07:27:32;;;;;;;;;;;;;;;-140.72;100.00;52403.03;4992176;28;19941;-69
2023/06/28 07:29:57;;;;;;;;;;;;;;;-140.72;100.00;52382.75;4990147;28;20083;-69
2023/06/28 07:32:26;;;;;;;;;;;;;;;-140.72;100.00;52394.91;4989108;28;19930;-69
2023/06/28 07:34:51;;;;;;;;;;;;;;;-140.72;100.00;52350.28;4984677;28;20307;-69
2023/06/28 07:37:16;;;;;;;;;;;;;;;-140.72;100.00;52407.09;4986843;28;19922;-69
2023/06/28 07:39:42;;;;;;;;;;;;;;;-140.72;100.00;52384.78;4982618;28;20296;-69
2023/06/28 07:42:07;;;;;;;;;;;;;;;-140.72;100.00;52360.44;4971425;28;20347;-69
2023/06/28 07:44:33;;;;;;;;;;;;;;;-140.72;100.00;52396.94;4991225;28;20088;-69
2023/06/28 07:46:58;;;;;;;;;;;;;;;-140.72;100.00;52376.66;4990112;28;19926;-69
2023/06/28 07:49:24;;;;;;;;;;;;;;;-140.72;100.00;52372.59;4994214;28;20283;-70
2023/06/28 07:51:49;;;;;;;;;;;;;;;-140.72;100.00;52305.63;4968606;28;19937;-70
2023/06/28 07:54:14;;;;;;;;;;;;;;;-140.72;100.00;52342.16;4991768;28;19952;-70
2023/06/28 07:56:39;;;;;;;;;;;;;;;-140.72;100.00;52336.06;4983589;28;19938;-69
2023/06/28 07:59:05;;;;;;;;;;;;;;;-140.72;100.00;52356.38;4986318;28;19961;-69
2023/06/28 08:01:33;;;;;;;;;;;;;;;-140.72;100.00;52368.53;4985858;28;19922;-70
2023/06/28 08:03:58;;;;;;;;;;;;;;;-140.72;100.00;52336.06;4991897;28;19926;-70
2023/06/28 08:06:24;;;;;;;;;;;;;;;-140.72;100.00;52350.28;4983916;28;20364;-69
2023/06/28 08:08:50;;;;;;;;;;;;;;;-140.72;100.00;52325.94;4983925;28;20384;-69
2023/06/28 08:11:16;;;;;;;;;;;;;;;-140.72;100.00;52344.19;4974614;28;19922;-70
2023/06/28 08:13:41;;;;;;;;;;;;;;;-140.72;100.00;52313.75;4989320;28;19953;-69
2023/06/28 08:16:06;;;;;;;;;;;;;;;-140.72;100.00;52305.63;4994120;28;19922;-69
2023/06/28 08:18:32;;;;;;;;;;;;;;;-140.72;100.00;52311.72;4991563;28;19917;-70
2023/06/28 08:20:57;;;;;;;;;;;;;;;-140.72;100.00;52297.53;4989700;28;19926;-68
2023/06/28 08:23:22;;;;;;;;;;;;;;;-140.72;100.00;52303.59;4985180;28;20276;-68
2023/06/28 08:25:47;;;;;;;;;;;;;;;-140.72;100.00;52303.59;4986646;28;19925;-68
2023/06/28 08:28:13;;;;;;;;;;;;;;;-140.72;100.00;52319.84;4990269;28;20026;-69
2023/06/28 08:30:38;;;;;;;;;;;;;;;-140.72;100.00;52330.00;4994205;28;20417;-69
2023/06/28 08:33:03;;;;;;;;;;;;;;;-140.72;100.00;52309.69;4991172;28;19918;-69
2023/06/28 08:35:29;;;;;;;;;;;;;;;-140.72;100.00;52311.72;4990937;28;20007;-69
2023/06/28 08:37:54;;;;;;;;;;;;;;;-140.72;100.00;52346.22;4985106;28;19939;-69
2023/06/28 08:40:19;;;;;;;;;;;;;;;-140.72;100.00;52295.50;4989707;28;20020;-69
2023/06/28 08:42:45;;;;;;;;;;;;;;;-140.72;100.00;52309.69;4992620;28;19922;-69
2023/06/28 08:45:11;;;;;;;;;;;;;;;-140.72;100.00;52307.66;4992475;28;19929;-69
2023/06/28 08:47:36;;;;;;;;;;;;;;;-140.72;100.00;52350.28;4985623;28;19932;-69
2023/06/28 08:50:02;;;;;;;;;;;;;;;-140.72;100.00;52336.06;4989957;28;20028;-69
2023/06/28 08:52:27;;;;;;;;;;;;;;;-140.72;100.00;52321.88;4993270;28;19922;-69
2023/06/28 08:54:53;;;;;;;;;;;;;;;-140.72;100.00;52313.75;4990610;28;20014;-69
2023/06/28 08:57:19;;;;;;;;;;;;;;;-140.72;100.00;52305.63;4974377;28;19926;-69
2023/06/28 08:59:45;;;;;;;;;;;;;;;-140.72;100.00;52301.59;4973266;28;19953;-69
2023/06/28 09:02:12;;;;;;;;;;;;;;;-140.72;100.00;52305.63;4991149;28;19930;-69
2023/06/28 09:04:38;;;;;;;;;;;;;;;-140.72;100.00;52319.84;4992924;28;19922;-71
2023/06/28 09:07:05;;;;;;;;;;;;;;;-140.72;100.00;52311.72;4987654;28;20010;-72
2023/06/28 09:09:32;;;;;;;;;;;;;;;-140.72;100.00;52321.88;4982707;28;19918;-70
2023/06/28 09:11:57;;;;;;;;;;;;;;;-140.72;100.00;52317.81;4987194;28;20280;-70
2023/06/28 09:14:23;;;;;;;;;;;;;;;-140.72;100.00;52317.81;4989447;28;19932;-70
2023/06/28 09:16:48;;;;;;;;;;;;;;;-140.72;100.00;52301.59;4996033;28;19937;-74
2023/06/28 09:19:13;;;;;;;;;;;;;;;-140.72;100.00;52321.88;4993481;28;19917;-71
2023/06/28 09:21:39;;;;;;;;;;;;;;;-140.72;100.00;52342.16;4987200;28;19926;-71
2023/06/28 09:24:10;;;;;;;;;;;;;;;-140.72;100.00;52325.94;4988016;28;20016;-70
2023/06/28 09:26:35;;;;;;;;;;;;;;;-140.72;100.00;52340.13;4982878;28;19968;-71
2023/06/28 09:29:07;;;;;;;;;;;;;;;-140.72;100.00;52336.06;4982165;28;19922;-72
2023/06/28 09:31:37;;;;;;;;;;;;;;;-140.72;100.00;52309.69;4990032;28;19965;-71
2023/06/28 09:34:03;;;;;;;;;;;;;;;-140.72;100.00;52315.78;4988660;28;20396;-71
2023/06/28 09:36:28;;;;;;;;;;;;;;;-140.72;100.00;52285.34;4988447;28;19972;-70
2023/06/28 09:38:55;;;;;;;;;;;;;;;-140.72;100.00;52273.19;4984875;28;19933;-70
2023/06/28 09:41:20;;;;;;;;;;;;;;;-140.72;100.00;52275.19;4993955;28;19921;-69
2023/06/28 09:43:46;;;;;;;;;;;;;;;-140.72;100.00;52269.13;4988747;28;19924;-69
2023/06/28 09:46:15;;;;;;;;;;;;;;;-140.72;100.00;52285.34;4980385;28;20331;-69
2023/06/28 09:48:41;;;;;;;;;;;;;;;-140.72;100.00;52228.53;4985565;28;19922;-70
2023/06/28 09:51:07;;;;;;;;;;;;;;;-140.72;100.00;52226.50;4985247;28;19922;-69
2023/06/28 09:53:33;;;;;;;;;;;;;;;-140.72;100.00;52285.34;4990775;28;19918;-69
2023/06/28 09:55:58;;;;;;;;;;;;;;;-140.72;100.00;52289.41;4991040;28;19929;-70
2023/06/28 09:58:25;;;;;;;;;;;;;;;-140.72;100.00;52317.81;4986335;28;19918;-69
2023/06/28 10:00:51;;;;;;;;;;;;;;;-140.72;100.00;52321.88;4977483;28;19918;-70
2023/06/28 10:03:17;;;;;;;;;;;;;;;-140.72;100.00;52289.41;4985053;28;20087;-70
2023/06/28 10:05:44;;;;;;;;;;;;;;;-140.72;100.00;52348.25;4986005;28;19922;-69
2023/06/28 10:08:11;;;;;;;;;;;;;;;-140.72;100.00;52277.22;4985820;28;19918;-70
2023/06/28 10:10:37;;;;;;;;;;;;;;;-140.72;100.00;52275.19;4980049;28;20403;-69
2023/06/28 10:13:03;;;;;;;;;;;;;;;-140.72;100.00;52305.63;4991338;28;19922;-69
2023/06/28 10:15:33;;;;;;;;;;;;;;;-140.72;100.00;52283.31;4993592;28;19945;-70
2023/06/28 10:17:58;;;;;;;;;;;;;;;-140.72;100.00;52269.13;4991968;28;20027;-69
2023/06/28 10:20:24;;;;;;;;;;;;;;;-140.72;100.00;52271.16;4993094;28;20352;-70
2023/06/28 10:22:49;;;;;;;;;;;;;;;-140.72;100.00;52275.19;4993179;28;19929;-69
2023/06/28 10:25:14;;;;;;;;;;;;;;;-140.72;100.00;52263.03;4975180;28;19964;-70
2023/06/28 10:27:40;;;;;;;;;;;;;;;-140.72;100.00;52261.00;4988844;28;20017;-70
2023/06/28 10:30:05;;;;;;;;;;;;;;;-140.72;100.00;52250.84;4993081;28;20364;-69
2023/06/28 10:32:31;;;;;;;;;;;;;;;-140.72;97.83;52248.81;4975523;28;19922;-70
2023/06/28 10:34:57;;;;;;;;;;;;;;;-140.72;92.20;52248.81;4992619;28;19980;-70
2023/06/28 10:37:23;;;;;;;;;;;;;;;-140.72;85.86;52301.59;4975021;28;20381;-70
2023/06/28 10:39:51;;;;;;;;;;;;;;;-140.72;81.82;52265.06;4990755;28;19961;-70
2023/06/28 10:42:18;;;;;;;;;;;;;;;-140.72;100.00;52309.69;4992790;28;19933;-69
2023/06/28 10:44:53;;;;;;;;;;;;;;;-140.72;100.00;52338.09;4987010;28;19918;-70
2023/06/28 10:47:18;;;;;;;;;;;;;;;-140.72;100.00;52330.00;4981994;28;20261;-69
2023/06/28 10:50:04;;;;;;;;;;;;;;;-140.72;100.00;52330.00;4991760;28;19933;-69
2023/06/28 10:52:29;;;;;;;;;;;;;;;-140.72;100.00;52368.53;4990157;28;19930;-69
2023/06/28 10:54:54;;;;;;;;;;;;;;;-140.72;100.00;52340.13;4985379;28;19929;-69
2023/06/28 10:57:33;;;;;;;;;;;;;;;-140.72;100.00;52342.16;4990206;28;20008;-70
2023/06/28 10:59:58;;;;;;;;;;;;;;;-140.72;100.00;52358.41;4974279;28;20026;-70
2023/06/28 11:02:44;;;;;;;;;;;;;;;-140.72;100.00;52321.88;4983383;28;19968;-70
2023/06/28 11:05:10;;;;;;;;;;;;;;;-140.72;100.00;52360.44;4966040;28;19921;-70
2023/06/28 11:07:41;;;;;;;;;;;;;;;-140.72;100.00;52319.84;4993076;28;19924;-69
2023/06/28 11:10:10;;;;;;;;;;;;;;;-140.72;100.00;52358.41;4991611;28;19939;-69
2023/06/28 11:12:37;;;;;;;;;;;;;;;-140.72;100.00;52342.16;4993259;28;20020;-69
2023/06/28 11:15:06;;;;;;;;;;;;;;;-140.72;100.00;52319.84;4992208;28;19918;-69
2023/06/28 11:17:32;;;;;;;;;;;;;;;-140.72;100.00;52315.78;4991451;28;19981;-70
2023/06/28 11:20:04;;;;;;;;;;;;;;;-140.72;100.00;52338.09;4988929;28;19950;-70
2023/06/28 11:22:50;;;;;;;;;;;;;;;-140.72;100.00;52295.50;4989783;28;19932;-70
2023/06/28 11:25:15;;;;;;;;;;;;;;;-140.72;100.00;52319.84;4990800;28;19928;-69
2023/06/28 11:27:40;;;;;;;;;;;;;;;-140.72;100.00;52342.16;4988860;28;20435;-70
2023/06/28 11:30:07;;;;;;;;;;;;;;;-140.72;100.00;52301.59;4992046;28;20354;-69
2023/06/28 11:32:35;;;;;;;;;;;;;;;-140.72;100.00;52360.44;4991663;28;19972;-69
2023/06/28 11:35:01;;;;;;;;;;;;;;;-140.72;100.00;52374.63;4979758;28;20429;-70
2023/06/28 11:37:27;;;;;;;;;;;;;;;-140.72;100.00;52390.84;4990781;28;19929;-70
2023/06/28 11:39:52;;;;;;;;;;;;;;;-140.72;100.00;52342.16;4978529;28;19918;-70
2023/06/28 11:42:18;;;;;;;;;;;;;;;-140.72;100.00;52354.34;4985084;28;20206;-75
2023/06/28 11:44:48;;;;;;;;;;;;;;;-140.72;100.00;52354.34;4989554;28;19922;-72
2023/06/28 11:47:17;;;;;;;;;;;;;;;-140.72;100.00;52384.78;4983193;28;19922;-70
2023/06/28 11:49:43;;;;;;;;;;;;;;;-140.72;100.00;52354.34;4982549;28;19972;-71
2023/06/28 11:52:09;;;;;;;;;;;;;;;-140.72;100.00;52374.63;4992668;28;20005;-70
2023/06/28 11:54:34;;;;;;;;;;;;;;;-140.72;100.00;52362.44;4992668;28;20213;-71
2023/06/28 11:57:01;;;;;;;;;;;;;;;-140.72;100.00;52358.41;4971415;28;19922;-71
2023/06/28 11:59:26;;;;;;;;;;;;;;;-140.72;100.00;52370.56;4982326;28;19926;-71
2023/06/28 12:02:03;;;;;;;;;;;;;;;-140.72;100.00;52334.03;4983731;28;20032;-71
2023/06/28 12:04:29;;;;;;;;;;;;;;;-140.72;100.00;52330.00;4984430;28;19932;-69
2023/06/28 12:06:54;;;;;;;;;;;;;;;-140.72;100.00;52346.22;4983521;28;19973;-72
2023/06/28 12:09:29;;;;;;;;;;;;;;;-140.72;100.00;52317.81;4980874;28;20017;-71
2023/06/28 12:11:57;;;;;;;;;;;;;;;-140.72;100.00;52261.00;4982989;28;19922;-70
2023/06/28 12:14:22;;;;;;;;;;;;;;;-140.72;100.00;52261.00;4985493;28;19926;-71
2023/06/28 12:16:50;;;;;;;;;;;;;;;-140.72;100.00;52224.47;4976442;28;20277;-71
2023/06/28 12:19:16;;;;;;;;;;;;;;;-140.72;98.06;52258.97;4984895;28;19941;-71